createdAt,value
2024-03-15T00:01:19.978Z,14.32
2024-03-15T00:03:47.511Z,16.98
2024-03-15T00:06:15.009Z,16.55
2024-03-15T00:08:42.326Z,16.02
2024-03-15T00:11:10.463Z,15.73
2024-03-15T00:13:38.031Z,13.70
2024-03-15T00:16:05.402Z,17.40
2024-03-15T00:18:35.042Z,20.10
2024-03-15T00:21:02.862Z,10.35
2024-03-15T00:23:29.906Z,12.02
2024-03-15T00:25:56.956Z,11.32
2024-03-15T00:28:23.958Z,11.68
2024-03-15T00:30:51.626Z,11.98
2024-03-15T00:33:19.027Z,10.98
2024-03-15T00:35:46.226Z,12.27
2024-03-15T00:38:13.555Z,14.65
2024-03-15T00:40:42.785Z,10.30
2024-03-15T00:43:09.747Z,11.70
2024-03-15T00:45:38.111Z,9.38
2024-03-15T00:48:05.659Z,13.40
2024-03-15T00:50:32.709Z,14.80
2024-03-15T00:53:01.482Z,12.70
2024-03-15T00:55:32.095Z,10.82
2024-03-15T00:58:01.492Z,13.38
2024-03-15T01:00:28.928Z,10.15
2024-03-15T01:02:58.922Z,10.15
2024-03-15T01:05:26.052Z,9.48
2024-03-15T01:07:53.128Z,10.15
2024-03-15T01:10:23.843Z,12.98
2024-03-15T01:12:51.274Z,9.52
2024-03-15T01:15:18.876Z,10.35
2024-03-15T01:17:46.417Z,10.40
2024-03-15T01:20:13.790Z,9.32
2024-03-15T01:22:42.669Z,12.32
2024-03-15T01:25:10.097Z,10.50
2024-03-15T01:27:37.351Z,9.18
2024-03-15T01:30:05.417Z,10.23
2024-03-15T01:32:35.608Z,10.60
2024-03-15T01:35:03.215Z,12.52
2024-03-15T01:37:30.309Z,12.75
2024-03-15T01:39:58.049Z,12.40
2024-03-15T01:42:25.273Z,9.60
2024-03-15T01:44:52.887Z,10.00
2024-03-15T01:47:27.192Z,8.35
2024-03-15T01:49:56.280Z,11.70
2024-03-15T01:52:26.512Z,11.50
2024-03-15T01:54:54.016Z,9.38
2024-03-15T01:57:22.042Z,16.15
2024-03-15T01:59:49.094Z,11.63
2024-03-15T02:02:16.239Z,13.13
2024-03-15T02:04:54.959Z,9.55
2024-03-15T02:07:23.563Z,11.77
2024-03-15T02:09:51.152Z,12.27
2024-03-15T02:12:19.060Z,10.68
2024-03-15T02:14:49.429Z,17.48
2024-03-15T02:17:17.658Z,17.10
2024-03-15T02:19:48.240Z,15.00
2024-03-15T02:22:15.313Z,11.07
2024-03-15T02:24:42.490Z,13.10
2024-03-15T02:27:14.697Z,9.75
2024-03-15T02:29:42.346Z,12.43
2024-03-15T02:32:11.389Z,18.92
2024-03-15T02:34:39.198Z,11.77
2024-03-15T02:37:08.564Z,11.63
2024-03-15T02:39:36.019Z,14.05
2024-03-15T02:42:07.181Z,11.07
2024-03-15T02:44:34.328Z,11.73
2024-03-15T02:47:01.544Z,10.23
2024-03-15T02:49:28.664Z,17.75
2024-03-15T02:51:55.743Z,10.73
2024-03-15T02:54:23.065Z,10.32
2024-03-15T02:56:50.337Z,15.90
2024-03-15T02:59:17.806Z,13.40
2024-03-15T03:01:47.498Z,13.02
2024-03-15T03:04:15.217Z,13.68
2024-03-15T03:06:46.980Z,12.80
2024-03-15T03:09:19.545Z,11.85
2024-03-15T03:11:46.913Z,11.77
2024-03-15T03:14:15.209Z,12.32
2024-03-15T03:16:43.755Z,14.73
2024-03-15T03:19:11.115Z,10.20
2024-03-15T03:21:38.959Z,14.13
2024-03-15T03:24:06.345Z,12.55
2024-03-15T03:26:33.663Z,8.63
2024-03-15T03:29:00.894Z,10.95
2024-03-15T03:31:28.034Z,9.57
2024-03-15T03:33:55.274Z,12.63
2024-03-15T03:36:22.366Z,12.73
2024-03-15T03:38:49.464Z,11.68
2024-03-15T03:41:16.592Z,12.20
2024-03-15T03:43:45.359Z,10.95
2024-03-15T03:46:14.250Z,12.68
2024-03-15T03:48:41.468Z,10.60
2024-03-15T03:51:08.733Z,10.32
2024-03-15T03:53:35.817Z,10.90
2024-03-15T03:56:02.920Z,13.05
2024-03-15T03:58:29.960Z,10.50
2024-03-15T04:00:57.177Z,10.63
2024-03-15T04:03:24.448Z,12.35
2024-03-15T04:05:51.493Z,13.63
2024-03-15T04:08:18.905Z,17.67
2024-03-15T04:10:45.918Z,20.48
2024-03-15T04:13:13.072Z,15.48
2024-03-15T04:15:47.389Z,11.68
2024-03-15T04:18:17.793Z,18.13
2024-03-15T04:20:47.760Z,18.17
2024-03-15T04:23:22.015Z,14.93
2024-03-15T04:25:50.115Z,16.52
2024-03-15T04:28:19.752Z,15.80
2024-03-15T04:30:47.656Z,16.02
2024-03-15T04:33:15.259Z,13.32
2024-03-15T04:35:43.308Z,12.05
2024-03-15T04:38:10.402Z,18.52
2024-03-15T04:40:37.502Z,14.95
2024-03-15T04:43:05.056Z,14.68
2024-03-15T04:45:32.252Z,14.07
2024-03-15T04:48:01.758Z,13.05
2024-03-15T04:50:28.918Z,14.88
2024-03-15T04:52:56.045Z,12.02
2024-03-15T04:55:23.221Z,13.25
2024-03-15T04:57:51.190Z,11.98
2024-03-15T05:00:22.652Z,17.80
2024-03-15T05:02:51.374Z,12.15
2024-03-15T05:05:19.750Z,15.55
2024-03-15T05:07:48.487Z,14.50
2024-03-15T05:10:17.289Z,12.85
2024-03-15T05:12:45.818Z,13.13
2024-03-15T05:15:14.320Z,12.27
2024-03-15T05:17:42.890Z,14.50
2024-03-15T05:20:14.693Z,13.43
2024-03-15T05:22:45.968Z,14.18
2024-03-15T05:25:16.106Z,16.15
2024-03-15T05:27:43.642Z,15.82
2024-03-15T05:30:11.184Z,11.93
2024-03-15T05:32:38.320Z,13.82
2024-03-15T05:35:05.758Z,10.35
2024-03-15T05:37:32.837Z,14.27
2024-03-15T05:39:59.821Z,10.85
2024-03-15T05:42:29.089Z,14.48
2024-03-15T05:44:56.166Z,11.18
2024-03-15T05:47:26.074Z,14.70
2024-03-15T05:49:55.946Z,16.27
2024-03-15T05:52:23.168Z,16.50
2024-03-15T05:54:50.473Z,15.18
2024-03-15T05:57:17.614Z,13.30
2024-03-15T05:59:44.579Z,14.88
2024-03-15T06:02:11.616Z,16.50
2024-03-15T06:04:38.613Z,13.35
2024-03-15T06:07:06.037Z,15.48
2024-03-15T06:09:33.179Z,13.77
2024-03-15T06:12:00.411Z,18.75
2024-03-15T06:14:28.029Z,20.45
2024-03-15T06:16:55.862Z,15.95
2024-03-15T06:19:23.655Z,13.70
2024-03-15T06:21:51.329Z,16.17
2024-03-15T06:24:23.009Z,13.68
2024-03-15T06:26:50.815Z,18.63
2024-03-15T06:29:19.848Z,13.75
2024-03-15T06:31:49.281Z,13.25
2024-03-15T06:34:23.014Z,13.23
2024-03-15T06:39:41.521Z,15.20
2024-03-15T06:42:22.613Z,13.73
2024-03-15T06:45:04.428Z,12.77
2024-03-15T06:47:34.482Z,14.68
2024-03-15T06:50:09.931Z,20.65
2024-03-15T06:52:37.194Z,15.13
2024-03-15T06:55:06.759Z,15.75
2024-03-15T06:57:35.369Z,12.82
2024-03-15T07:00:04.152Z,15.57
2024-03-15T07:02:31.512Z,12.75
2024-03-15T07:04:58.752Z,13.65
2024-03-15T07:07:28.637Z,15.05
2024-03-15T07:09:56.021Z,15.18
2024-03-15T07:12:24.188Z,13.70
2024-03-15T07:14:54.667Z,11.70
2024-03-15T07:17:23.954Z,12.35
2024-03-15T07:19:51.416Z,15.13
2024-03-15T07:22:19.405Z,14.15
2024-03-15T07:24:51.760Z,16.73
2024-03-15T07:27:18.955Z,13.57
2024-03-15T07:29:47.919Z,12.60
2024-03-15T07:32:14.984Z,14.50
2024-03-15T07:34:42.018Z,15.65
2024-03-15T07:37:09.331Z,13.57
2024-03-15T07:39:37.796Z,14.55
2024-03-15T07:42:05.959Z,12.55
2024-03-15T07:44:33.591Z,15.63
2024-03-15T07:47:01.271Z,16.35
2024-03-15T07:49:30.579Z,13.80
2024-03-15T07:51:58.122Z,12.52
2024-03-15T07:54:26.222Z,15.95
2024-03-15T07:56:55.975Z,15.80
2024-03-15T07:59:23.790Z,12.80
2024-03-15T08:01:51.087Z,17.48
2024-03-15T08:04:18.246Z,14.77
2024-03-15T08:06:45.665Z,18.25
2024-03-15T08:09:13.385Z,16.60
2024-03-15T08:11:41.635Z,15.05
2024-03-15T08:14:09.412Z,16.35
2024-03-15T08:16:37.322Z,14.77
2024-03-15T08:19:11.439Z,15.15
2024-03-15T08:21:39.717Z,17.85
2024-03-15T08:24:10.620Z,13.57
2024-03-15T08:26:38.399Z,20.00
2024-03-15T08:29:06.225Z,19.17
2024-03-15T08:31:33.327Z,14.15
2024-03-15T08:34:05.083Z,15.60
2024-03-15T08:36:38.376Z,13.48
2024-03-15T08:39:06.712Z,15.00
2024-03-15T08:41:33.931Z,18.00
2024-03-15T08:44:01.114Z,16.15
2024-03-15T08:46:31.005Z,18.25
2024-03-15T08:48:59.669Z,19.70
2024-03-15T08:51:26.842Z,16.73
2024-03-15T08:53:54.921Z,17.13
2024-03-15T08:56:22.536Z,15.30
2024-03-15T08:58:50.669Z,14.82
2024-03-15T09:01:19.881Z,11.95
2024-03-15T09:03:50.359Z,19.88
2024-03-15T09:06:17.821Z,13.32
2024-03-15T09:08:55.585Z,16.30
2024-03-15T09:11:23.790Z,12.13
2024-03-15T09:13:51.190Z,16.95
2024-03-15T09:16:18.625Z,16.17
2024-03-15T09:18:45.787Z,19.83
2024-03-15T09:21:14.047Z,17.05
2024-03-15T09:23:41.444Z,16.67
2024-03-15T09:26:08.822Z,17.52
2024-03-15T09:28:41.433Z,15.02
2024-03-15T09:31:18.483Z,12.75
2024-03-15T09:33:59.419Z,15.95
2024-03-15T09:36:29.380Z,16.15
2024-03-15T09:38:57.239Z,15.95
2024-03-15T09:41:24.989Z,14.90
2024-03-15T09:43:54.174Z,14.63
2024-03-15T09:46:22.460Z,13.60
2024-03-15T09:48:52.879Z,12.43
2024-03-15T09:51:21.683Z,15.50
2024-03-15T09:53:49.467Z,15.63
2024-03-15T09:56:20.032Z,13.00
2024-03-15T09:58:51.470Z,15.65
2024-03-15T10:01:19.052Z,16.85
2024-03-15T10:03:50.247Z,13.02
2024-03-15T10:06:19.156Z,13.15
2024-03-15T10:08:46.449Z,16.40
2024-03-15T10:11:13.542Z,18.05
2024-03-15T10:13:41.015Z,15.45
2024-03-15T10:16:11.227Z,13.68
2024-03-15T10:18:39.582Z,19.08
2024-03-15T10:21:07.137Z,15.40
2024-03-15T10:23:34.302Z,11.15
2024-03-15T10:26:08.238Z,10.48
2024-03-15T10:28:41.147Z,12.00
2024-03-15T10:31:09.692Z,14.55
2024-03-15T10:33:36.860Z,13.02
2024-03-15T10:36:09.302Z,9.45
2024-03-15T10:38:37.839Z,9.52
2024-03-15T10:41:05.900Z,11.15
2024-03-15T10:43:33.374Z,11.23
2024-03-15T10:46:00.650Z,7.53
2024-03-15T10:48:28.689Z,15.63
2024-03-15T10:50:58.324Z,10.20
2024-03-15T10:53:26.102Z,12.45
2024-03-15T10:55:56.478Z,12.00
2024-03-15T10:58:23.983Z,7.85
2024-03-15T11:00:51.618Z,9.70
2024-03-15T11:03:29.033Z,9.00
2024-03-15T11:05:56.221Z,11.25
2024-03-15T11:08:25.511Z,9.48
2024-03-15T11:11:03.349Z,10.68
2024-03-15T11:13:34.836Z,8.20
2024-03-15T11:16:25.933Z,13.45
2024-03-15T11:18:53.151Z,15.40
2024-03-15T11:21:22.376Z,11.30
2024-03-15T11:23:49.719Z,9.00
2024-03-15T11:26:25.513Z,8.02
2024-03-15T11:29:00.220Z,11.05
2024-03-15T11:31:30.571Z,9.70
2024-03-15T11:34:00.074Z,10.80
2024-03-15T11:36:29.034Z,9.68
2024-03-15T11:38:56.519Z,7.40
2024-03-15T11:41:23.575Z,12.52
2024-03-15T11:43:55.166Z,10.73
2024-03-15T11:46:22.373Z,8.57
2024-03-15T11:48:49.422Z,7.30
2024-03-15T11:51:16.839Z,15.35
2024-03-15T11:53:43.989Z,7.57
2024-03-15T11:56:11.136Z,10.77
2024-03-15T11:58:44.561Z,6.65
2024-03-15T12:01:12.457Z,5.50
2024-03-15T12:03:40.164Z,10.10
2024-03-15T12:06:09.173Z,8.15
2024-03-15T12:08:36.614Z,9.73
2024-03-15T12:11:04.064Z,9.15
2024-03-15T12:13:31.708Z,7.07
2024-03-15T12:16:00.086Z,7.03
2024-03-15T12:18:30.661Z,9.75
2024-03-15T12:20:57.836Z,6.80
2024-03-15T12:23:25.280Z,6.03
2024-03-15T12:25:53.545Z,10.73
2024-03-15T12:28:22.184Z,11.95
2024-03-15T12:30:53.164Z,11.75
2024-03-15T12:33:20.923Z,8.85
2024-03-15T12:35:50.275Z,10.88
2024-03-15T12:38:24.179Z,9.73
2024-03-15T12:40:53.729Z,7.75
2024-03-15T12:43:21.385Z,8.43
2024-03-15T12:45:48.866Z,10.52
2024-03-15T12:48:18.531Z,11.20
2024-03-15T12:50:45.996Z,11.45
2024-03-15T12:53:15.281Z,10.07
2024-03-15T12:55:43.825Z,10.70
2024-03-15T12:58:11.733Z,11.77
2024-03-15T13:00:39.398Z,6.38
2024-03-15T13:03:11.602Z,10.57
2024-03-15T13:05:38.787Z,8.20
2024-03-15T13:08:06.566Z,8.90
2024-03-15T13:10:34.346Z,7.60
2024-03-15T13:13:07.630Z,10.57
2024-03-15T13:15:35.663Z,7.75
2024-03-15T13:18:03.360Z,6.43
2024-03-15T13:20:30.831Z,6.82
2024-03-15T13:22:58.143Z,9.85
2024-03-15T13:25:34.402Z,13.23
2024-03-15T13:28:09.311Z,6.15
2024-03-15T13:30:38.672Z,8.98
2024-03-15T13:33:10.839Z,14.43
2024-03-15T13:35:38.965Z,6.95
2024-03-15T13:38:07.238Z,16.88
2024-03-15T13:44:24.335Z,6.47
2024-03-15T13:47:00.038Z,12.05
2024-03-15T13:51:55.279Z,11.88
2024-03-15T13:54:22.892Z,9.98
2024-03-15T13:56:55.117Z,7.82
2024-03-15T13:59:23.833Z,9.05
2024-03-15T14:01:52.248Z,11.38
2024-03-15T14:04:22.328Z,8.35
2024-03-15T14:06:49.437Z,9.60
2024-03-15T14:09:18.540Z,11.27
2024-03-15T14:11:46.124Z,10.57
2024-03-15T14:14:13.187Z,10.43
2024-03-15T14:16:47.660Z,8.95
2024-03-15T14:19:17.933Z,18.27
2024-03-15T14:21:45.114Z,9.57
2024-03-15T14:24:12.316Z,7.20
2024-03-15T14:26:39.338Z,6.55
2024-03-15T14:29:08.684Z,9.13
2024-03-15T14:31:35.882Z,10.00
2024-03-15T14:34:03.251Z,7.30
2024-03-15T14:36:32.549Z,9.50
2024-03-15T14:41:25.858Z,7.97
2024-03-15T14:43:52.940Z,6.60
2024-03-15T14:46:20.112Z,5.03
2024-03-15T14:48:47.241Z,8.50
2024-03-15T14:51:14.410Z,5.95
2024-03-15T14:53:44.616Z,7.28
2024-03-15T15:02:35.330Z,6.93
2024-03-15T15:05:07.077Z,6.25
2024-03-15T15:07:34.967Z,6.10
2024-03-15T15:10:02.365Z,8.25
2024-03-15T15:12:31.466Z,6.80
2024-03-15T15:14:59.677Z,5.47
2024-03-15T15:17:31.587Z,10.05
2024-03-15T15:19:59.260Z,5.85
2024-03-15T15:22:34.728Z,6.55
2024-03-15T15:25:17.517Z,11.25
2024-03-15T15:27:50.506Z,9.15
2024-03-15T15:30:19.109Z,6.15
2024-03-15T15:32:50.451Z,8.98
2024-03-15T15:35:18.090Z,5.35
2024-03-15T15:37:45.614Z,5.22
2024-03-15T15:40:17.999Z,5.13
2024-03-15T15:42:49.788Z,5.70
2024-03-15T15:45:18.875Z,5.45
2024-03-15T15:47:47.048Z,5.88
2024-03-15T15:50:20.902Z,6.20
2024-03-15T15:52:49.347Z,7.38
2024-03-15T15:55:20.360Z,4.50
2024-03-15T15:57:50.060Z,6.90
2024-03-15T16:00:20.848Z,8.73
2024-03-15T16:02:49.523Z,6.25
2024-03-15T16:05:17.713Z,3.65
2024-03-15T16:07:45.644Z,4.43
2024-03-15T16:10:13.559Z,3.58
2024-03-15T16:12:41.429Z,10.18
2024-03-15T16:15:13.593Z,6.22
2024-03-15T16:17:40.950Z,2.28
2024-03-15T16:24:47.955Z,2.67
2024-03-15T16:27:22.157Z,2.28
2024-03-15T16:29:54.899Z,5.30
2024-03-15T16:32:24.312Z,3.85
2024-03-15T16:34:51.872Z,4.43
2024-03-15T16:37:19.441Z,6.63
2024-03-15T16:39:46.863Z,2.78
2024-03-15T16:42:19.215Z,2.90
2024-03-15T16:44:48.591Z,6.63
2024-03-15T16:47:15.671Z,2.58
2024-03-15T16:49:45.134Z,5.97
2024-03-15T16:52:19.551Z,4.55
2024-03-15T16:54:46.800Z,3.35
2024-03-15T16:57:14.065Z,3.90
2024-03-15T16:59:41.157Z,4.97
2024-03-15T17:02:09.825Z,5.03
2024-03-15T17:04:37.671Z,3.65
2024-03-15T17:07:06.865Z,2.63
2024-03-15T17:09:34.628Z,5.15
2024-03-15T17:12:01.971Z,6.00
2024-03-15T17:14:29.535Z,5.65
2024-03-15T17:16:57.277Z,5.30
2024-03-15T17:19:25.425Z,5.28
2024-03-15T17:21:53.457Z,4.68
2024-03-15T17:24:21.644Z,6.75
2024-03-15T17:26:49.744Z,2.78
2024-03-15T17:29:17.031Z,4.35
2024-03-15T17:31:44.293Z,3.45
2024-03-15T17:34:13.910Z,4.85
2024-03-15T17:36:54.182Z,5.85
2024-03-15T17:39:23.503Z,5.00
2024-03-15T17:41:53.269Z,6.97
2024-03-15T17:44:20.547Z,3.35
2024-03-15T17:46:54.414Z,9.05
2024-03-15T17:49:21.693Z,3.25
2024-03-15T17:51:49.330Z,6.25
2024-03-15T17:54:17.230Z,5.18
2024-03-15T17:56:46.846Z,5.10
2024-03-15T17:59:13.870Z,4.47
2024-03-15T18:01:40.954Z,5.18
2024-03-15T18:04:08.352Z,6.65
2024-03-15T18:06:35.556Z,7.25
2024-03-15T18:09:03.926Z,7.43
2024-03-15T18:11:31.007Z,5.95
2024-03-15T18:13:58.125Z,8.48
2024-03-15T18:16:25.186Z,5.20
2024-03-15T18:18:52.486Z,5.30
2024-03-15T18:21:19.685Z,6.32
2024-03-15T18:23:48.729Z,9.00
2024-03-15T18:26:15.762Z,12.45
2024-03-15T18:28:42.803Z,7.45
2024-03-15T18:31:10.662Z,12.15
2024-03-15T18:33:45.294Z,8.90
2024-03-15T18:36:15.327Z,8.80
2024-03-15T18:38:42.596Z,8.32
2024-03-15T18:41:10.173Z,6.68
2024-03-15T18:43:39.423Z,5.13
2024-03-15T18:46:06.643Z,7.00
2024-03-15T18:48:35.867Z,8.57
2024-03-15T18:51:06.668Z,7.95
2024-03-15T18:53:33.805Z,8.70
2024-03-15T18:56:00.937Z,7.25
2024-03-15T18:58:28.592Z,9.90
2024-03-15T19:01:00.453Z,8.23
2024-03-15T19:06:44.488Z,7.38
2024-03-15T19:09:11.922Z,9.00
2024-03-15T19:11:38.939Z,10.70
2024-03-15T19:14:06.150Z,9.88
2024-03-15T19:16:36.068Z,8.57
2024-03-15T19:19:03.556Z,14.07
2024-03-15T19:21:31.436Z,10.57
2024-03-15T19:23:58.542Z,10.93
2024-03-15T19:26:25.572Z,13.20
2024-03-15T19:28:52.677Z,10.45
2024-03-15T19:31:19.719Z,15.18
2024-03-15T19:33:46.938Z,16.77
2024-03-15T19:36:13.995Z,9.25
2024-03-15T19:38:42.508Z,11.13
2024-03-15T19:41:14.284Z,12.80
2024-03-15T19:43:42.524Z,13.45
2024-03-15T19:46:09.873Z,11.48
2024-03-15T19:48:37.899Z,11.13
2024-03-15T19:51:05.252Z,10.25
2024-03-15T19:53:32.991Z,10.55
2024-03-15T19:56:00.040Z,12.10
2024-03-15T19:58:27.199Z,11.65
2024-03-15T20:00:54.738Z,10.65
2024-03-15T20:03:22.133Z,13.20
2024-03-15T20:05:49.404Z,9.48
2024-03-15T20:08:18.085Z,13.73
2024-03-15T20:10:49.223Z,9.15
2024-03-15T20:13:16.631Z,9.27
2024-03-15T20:15:46.739Z,10.60
2024-03-15T20:18:14.370Z,14.93
2024-03-15T20:20:42.499Z,13.80
2024-03-15T20:23:11.046Z,10.70
2024-03-15T20:25:38.157Z,12.57
2024-03-15T20:28:05.739Z,13.07
2024-03-15T20:30:33.478Z,15.45
2024-03-15T20:33:01.162Z,13.85
2024-03-15T20:35:29.465Z,13.55
2024-03-15T20:37:57.816Z,13.15
2024-03-15T20:40:27.987Z,12.52
2024-03-15T20:42:56.361Z,9.07
2024-03-15T20:45:24.444Z,13.68
2024-03-15T20:47:52.079Z,14.75
2024-03-15T20:50:21.221Z,15.65
2024-03-15T20:52:48.418Z,10.77
2024-03-15T20:55:15.560Z,12.88
2024-03-15T20:57:42.807Z,11.70
2024-03-15T21:00:14.100Z,11.60
2024-03-15T21:02:41.882Z,14.48
2024-03-15T21:05:13.599Z,15.60
2024-03-15T21:07:41.557Z,12.52
2024-03-15T21:10:09.864Z,11.75
2024-03-15T21:12:38.723Z,13.23
2024-03-15T21:15:10.091Z,9.20
2024-03-15T21:17:38.946Z,12.48
2024-03-15T21:20:14.058Z,11.88
2024-03-15T21:22:41.827Z,12.35
2024-03-15T21:25:14.237Z,12.02
2024-03-15T21:27:42.128Z,11.90
2024-03-15T21:30:09.781Z,13.95
2024-03-15T21:32:37.348Z,12.27
2024-03-15T21:35:05.620Z,11.30
2024-03-15T21:37:34.667Z,14.63
2024-03-15T21:40:03.248Z,9.60
2024-03-15T21:42:30.834Z,13.38
2024-03-15T21:44:58.899Z,12.63
2024-03-15T21:47:26.528Z,17.60
2024-03-15T21:49:53.836Z,14.52
2024-03-15T21:52:21.575Z,8.20
2024-03-15T21:54:49.000Z,22.50
2024-03-15T21:57:16.483Z,13.43
2024-03-15T21:59:47.564Z,13.35
2024-03-15T22:02:15.474Z,12.55
2024-03-15T22:04:43.025Z,9.43
2024-03-15T22:07:10.691Z,10.90
2024-03-15T22:09:38.167Z,12.13
2024-03-15T22:12:06.682Z,12.88
2024-03-15T22:14:34.981Z,11.63
2024-03-15T22:17:02.180Z,12.18
2024-03-15T22:19:29.388Z,12.07
2024-03-15T22:21:56.865Z,9.65
2024-03-15T22:24:24.262Z,15.63
2024-03-15T22:26:51.523Z,12.75
2024-03-15T22:29:20.796Z,10.35
2024-03-15T22:31:48.564Z,15.30
2024-03-15T22:34:16.694Z,19.17
2024-03-15T22:36:44.450Z,14.32
2024-03-15T22:39:11.695Z,16.35
2024-03-15T22:41:38.990Z,18.02
2024-03-15T22:44:06.151Z,20.48
2024-03-15T22:46:33.946Z,20.10
2024-03-15T22:49:01.309Z,15.38
2024-03-15T22:51:28.701Z,17.27
2024-03-15T22:53:56.067Z,21.40
2024-03-15T22:56:23.486Z,18.73
2024-03-15T22:58:50.809Z,20.55
2024-03-15T23:01:17.972Z,16.70
2024-03-15T23:03:48.042Z,16.20
2024-03-15T23:06:15.919Z,16.58
2024-03-15T23:08:43.184Z,19.73
2024-03-15T23:11:10.359Z,18.92
2024-03-15T23:13:37.689Z,19.75
2024-03-15T23:16:05.681Z,21.42
2024-03-15T23:18:33.658Z,22.63
2024-03-15T23:21:02.312Z,24.20
2024-03-15T23:23:30.493Z,24.00
2024-03-15T23:25:58.535Z,19.33
2024-03-15T23:28:26.792Z,19.17
2024-03-15T23:30:54.262Z,16.83
2024-03-15T23:33:22.242Z,19.58
2024-03-15T23:35:52.943Z,27.90
2024-03-15T23:38:20.591Z,23.85
2024-03-15T23:40:48.166Z,13.20
2024-03-15T23:43:19.969Z,21.38
2024-03-15T23:45:47.845Z,21.92
2024-03-15T23:48:26.851Z,22.25
2024-03-15T23:50:54.943Z,20.83
2024-03-15T23:53:23.711Z,25.98
2024-03-15T23:55:50.975Z,19.67
2024-03-15T23:58:18.163Z,21.13
